All
Georgetown Airport (Georgetown Queensland) YGTN Weather
|
Georgetown Queensland (YGTN)
Clear skies
Light winds |
|
26 °C |
YGTN Terminal Area Forecast
| Date | Time (AEST) | Flight Rules | Wind Dir. | Speed | Type | Height AGL (ft) | Visibility | Remarks | ||||||
|---|---|---|---|---|---|---|---|---|---|---|---|---|---|---|
Recent YGTN METAR history
| Date | Time (AEST) | Flight Rules | Wind Dir. | Speed | Type | Height AGL (ft) | Visibility | Temp (°C) | Temp (°F) | Dew Point (°C) | Dew Point (°F) | Rel. Humid. | Pressure | Density Altitude | Remarks |
|---|---|---|---|---|---|---|---|---|---|---|---|---|---|---|---|
| 05-May | 09:00 | VFR | 120° | 5 kt | 10000 meters | 26° | 78° | 18° | 64° | 61% | 1016 mb | 2,233 ft | |||
| 05-May | 08:00 | VFR | 150° | 3 kt | 10000 meters | 23° | 73° | 18° | 64° | 73% | 1016 mb | 1,873 ft | |||
| 05-May | 07:00 | VFR | 210° | 1 kt | 10000 meters | 18° | 64° | 17° | 62° | 94% | 1015 mb | 1,302 ft | |||
| 05-May | 06:00 | VFR | 210° | 4 kt | 10000 meters | 19° | 66° | 16° | 60° | 83% | 1015 mb | 1,422 ft | |||
| 05-May | 05:00 | VFR | 220° | 4 kt | 10000 meters | 19° | 66° | 17° | 62° | 88% | 1014 mb | 1,452 ft | |||
| 05-May | 04:00 | VFR | 180° | 4 kt | 10000 meters | 21° | 69° | 17° | 62° | 78% | 1014 mb | 1,692 ft | |||
| 05-May | 03:00 | VFR | 100° | 2 kt | 10000 meters | 20° | 68° | 17° | 62° | 83% | 1014 mb | 1,572 ft | |||
| 05-May | 02:00 | VFR | 100° | 4 kt | 10000 meters | 22° | 71° | 17° | 62° | 73% | 1014 mb | 1,812 ft | |||
| 05-May | 01:00 | VFR | 90° | 5 kt | Scattered |
7,300 |
10000 meters | 23° | 73° | 18° | 64° | 73% | 1015 mb | 1,902 ft | |
| 05-May | 00:00 | VFR | 90° | 5 kt | 10000 meters | 23° | 73° | 18° | 64° | 73% | 1015 mb | 1,902 ft | |||
| 04-May | 23:00 | VFR | 100° | 4 kt | 10000 meters | 22° | 71° | 18° | 64° | 78% | 1015 mb | 1,782 ft | |||
| 04-May | 22:00 | VFR | 140° | 4 kt | 10000 meters | 22° | 71° | 16° | 60° | 69% | 1015 mb | 1,782 ft | |||
| 04-May | 21:00 | VFR | 100° | 2 kt | 10000 meters | 21° | 69° | 15° | 59° | 69% | 1015 mb | 1,662 ft | |||
| 04-May | 20:00 | VFR | 180° | 3 kt | 10000 meters | 22° | 71° | 15° | 59° | 65% | 1014 mb | 1,812 ft | |||
| 04-May | 19:00 | VFR | 170° | 4 kt | 10000 meters | 23° | 73° | 15° | 59° | 61% | 1013 mb | 1,961 ft | |||
| 04-May | 18:00 | VFR | 150° | 4 kt | 10000 meters | 28° | 82° | 14° | 57° | 42% | 1013 mb | 2,561 ft | |||
| 04-May | 17:00 | VFR | 100° | 8 kt | 10000 meters | 30° | 86° | 14° | 57° | 38% | 1012 mb | 2,831 ft | |||
| 04-May | 16:00 | VFR | 110° | 8 kt | 10000 meters | 31° | 87° | 14° | 57° | 36% | 1012 mb | 2,951 ft | |||
| 04-May | 15:00 | VFR | 150° | 6 kt | 10000 meters | 32° | 89° | 14° | 57° | 34% | 1012 mb | 3,071 ft | |||
| 04-May | 14:00 | VFR | 120° | 6 kt | 10000 meters | 31° | 87° | 13° | 55° | 33% | 1012 mb | 2,951 ft | |||
| 04-May | 13:00 | VFR | 90° | 7 kt | 10000 meters | 32° | 89° | 14° | 57° | 34% | 1013 mb | 3,041 ft | |||
| 04-May | 12:00 | VFR | 130° | 5 kt | 10000 meters | 31° | 87° | 14° | 57° | 36% | 1014 mb | 2,892 ft | |||
| 04-May | 11:00 | VFR | 80° | 7 kt | 10000 meters | 30° | 86° | 15° | 59° | 40% | 1015 mb | 2,742 ft | |||
| 04-May | 10:00 | VFR | 90° | 9 kt | 10000 meters | 28° | 82° | 15° | 59° | 45% | 1015 mb | 2,502 ft |
Login
| Your browser is unsupported. upgrade your browser |
